Time;durP1;ratioP1;P1;durP2;ratioP2;P2;SDS_P1;SDS_P2;PMS_P1;PMS_P2;Temp;Humidity;BMP_temperature;BMP_pressure;BME280_temperature;BME280_humidity;BME280_pressure;Samples;Min_cycle;Max_cycle;Signal;HPM_P1;HPM_P2
2021/12/29 00:00:13;;;;;;;8.30;5.60;;;;;;;7.88;100.00;99275.94;826594;23;1131;-86
2021/12/29 00:00:44;;;;;;;8.15;5.80;;;;;;;7.83;100.00;99290.75;828281;23;1503;-86
2021/12/29 00:01:12;;;;;;;9.18;5.90;;;;;;;7.77;100.00;99250.09;830229;23;1251;-86
2021/12/29 00:01:35;;;;;;;8.02;6.00;;;;;;;7.76;100.00;99300.38;815142;23;4275;-86
2021/12/29 00:02:03;;;;;;;9.45;5.93;;;;;;;7.85;100.00;99262.97;826530;23;1131;-87
2021/12/29 00:02:24;;;;;;;9.57;5.88;;;;;;;7.79;100.00;99248.31;834059;23;1254;-86
2021/12/29 00:02:58;;;;;;;9.10;5.97;;;;;;;7.72;100.00;99266.66;826802;23;1562;-86
2021/12/29 00:03:37;;;;;;;8.98;6.07;;;;;;;7.65;100.00;99268.47;826472;23;1240;-87
2021/12/29 00:03:59;;;;;;;8.07;5.90;;;;;;;7.65;100.00;99299.69;822802;24;1229;-86
2021/12/29 00:04:24;;;;;;;9.00;6.03;;;;;;;7.67;100.00;99274.53;812549;23;4480;-86
2021/12/29 00:04:47;;;;;;;9.10;5.72;;;;;;;7.66;100.00;99252.00;834700;23;1474;-86
2021/12/29 00:05:11;;;;;;;8.90;6.03;;;;;;;7.66;100.00;99278.00;829658;23;1550;-86
2021/12/29 00:05:33;;;;;;;8.20;5.80;;;;;;;7.72;100.00;99270.09;836525;23;1335;-86
2021/12/29 00:05:59;;;;;;;8.77;6.35;;;;;;;7.77;100.00;99244.88;835960;23;1493;-86
2021/12/29 00:06:31;;;;;;;9.27;6.07;;;;;;;7.81;100.00;99292.53;836966;23;1399;-86
2021/12/29 00:06:57;;;;;;;9.18;6.18;;;;;;;7.79;100.00;99244.84;824280;24;1408;-85
2021/12/29 00:07:23;;;;;;;9.30;6.32;;;;;;;7.75;100.00;99244.03;820934;23;4322;-86
2021/12/29 00:07:45;;;;;;;9.20;5.93;;;;;;;7.71;100.00;99280.53;833725;23;1213;-86
2021/12/29 00:08:06;;;;;;;9.98;6.30;;;;;;;7.64;100.00;99270.22;833477;23;1302;-86
2021/12/29 00:08:27;;;;;;;9.73;6.28;;;;;;;7.64;100.00;99241.63;827346;23;1312;-86
2021/12/29 00:08:51;;;;;;;9.50;6.25;;;;;;;7.61;100.00;99272.00;826771;23;1361;-86
2021/12/29 00:09:14;;;;;;;9.02;6.40;;;;;;;7.60;100.00;99258.16;826085;23;1193;-86
2021/12/29 00:09:54;;;;;;;;;;;;;;;;;;;;;
2021/12/29 00:10:22;;;;;;;11.48;7.05;;;;;;;7.59;100.00;99246.03;831577;23;4388;-86
2021/12/29 00:10:55;;;;;;;10.02;6.90;;;;;;;7.65;100.00;99274.53;826506;23;1547;-87
2021/12/29 00:11:40;;;;;;;10.75;6.68;;;;;;;7.76;100.00;99283.94;828079;23;967;-87
2021/12/29 00:12:25;;;;;;;10.73;6.85;;;;;;;7.65;100.00;99245.06;825679;23;1226;-87
2021/12/29 00:13:00;;;;;;;9.75;6.60;;;;;;;7.68;100.00;99245.00;835524;23;1141;-87
2021/12/29 00:13:41;;;;;;;8.98;6.60;;;;;;;7.65;100.00;99247.66;829769;23;4258;-87
2021/12/29 00:14:04;;;;;;;10.55;6.78;;;;;;;7.64;100.00;99277.16;830152;23;1134;-87
2021/12/29 00:14:27;;;;;;;12.18;7.20;;;;;;;7.61;100.00;99244.25;830753;23;1317;-87
2021/12/29 00:15:01;;;;;;;;;;;;;;;;;;;;;
2021/12/29 00:15:28;;;;;;;11.27;6.63;;;;;;;7.74;100.00;99257.94;824735;23;1290;-87
2021/12/29 00:15:57;;;;;;;8.88;6.30;;;;;;;7.72;100.00;99262.28;823044;23;924;-87
2021/12/29 00:16:21;;;;;;;9.77;6.60;;;;;;;7.66;100.00;99257.19;822028;23;1515;-86
2021/12/29 00:16:49;;;;;;;10.55;6.72;;;;;;;7.64;100.00;99258.94;813144;23;4967;-87
2021/12/29 00:17:10;;;;;;;9.73;6.60;;;;;;;7.70;100.00;99261.47;826584;23;1609;-86
2021/12/29 00:17:33;;;;;;;10.17;6.63;;;;;;;7.70;100.00;99256.28;832085;23;1058;-87
2021/12/29 00:18:00;;;;;;;9.27;6.80;;;;;;;7.68;100.00;99297.03;833065;23;1365;-87
2021/12/29 00:18:24;;;;;;;10.30;6.60;;;;;;;7.71;100.00;99270.13;832512;23;1933;-86
2021/12/29 00:18:55;;;;;;;9.88;6.65;;;;;;;7.72;100.00;99284.84;830283;23;1165;-87
2021/12/29 00:19:28;;;;;;;9.77;6.60;;;;;;;7.81;100.00;99272.56;822014;23;1563;-87
2021/12/29 00:19:54;;;;;;;10.07;6.90;;;;;;;7.75;100.00;99277.84;807324;23;4896;-86
2021/12/29 00:20:27;;;;;;;9.93;6.63;;;;;;;7.81;100.00;99315.94;822727;24;1338;-87
2021/12/29 00:20:58;;;;;;;10.98;6.50;;;;;;;7.74;100.00;99280.47;821938;24;845;-87
2021/12/29 00:21:22;;;;;;;10.23;6.35;;;;;;;7.70;100.00;99278.81;822609;24;1442;-87
2021/12/29 00:21:45;;;;;;;8.98;6.50;;;;;;;7.67;100.00;99279.75;822253;23;1316;-86
2021/12/29 00:22:07;;;;;;;8.93;6.45;;;;;;;7.69;100.00;99257.16;823268;24;932;-87
2021/12/29 00:22:40;;;;;;;11.60;6.78;;;;;;;7.67;100.00;99290.13;813678;23;4391;-87
2021/12/29 00:23:25;;;;;;;9.50;6.45;;;;;;;7.73;100.00;99264.03;836194;23;1325;-87
2021/12/29 00:23:51;;;;;;;9.13;6.13;;;;;;;7.71;100.00;99260.56;829961;23;1036;-87
2021/12/29 00:24:15;;;;;;;8.88;6.35;;;;;;;7.72;100.00;99259.69;826524;23;1361;-86
2021/12/29 00:24:38;;;;;;;8.80;6.30;;;;;;;7.70;100.00;99292.69;830695;23;1289;-87
2021/12/29 00:25:06;;;;;;;9.43;6.55;;;;;;;7.81;100.00;99276.91;825789;23;1405;-87
2021/12/29 00:25:30;;;;;;;10.02;6.70;;;;;;;7.74;100.00;99296.97;808536;23;4326;-87
2021/12/29 00:25:59;;;;;;;10.35;6.55;;;;;;;7.75;100.00;99266.59;826594;23;1249;-87
2021/12/29 00:26:25;;;;;;;9.48;6.90;;;;;;;7.70;100.00;99269.28;827081;23;1450;-86
2021/12/29 00:27:05;;;;;;;9.35;6.38;;;;;;;7.65;100.00;99273.69;827991;23;1304;-87
2021/12/29 00:27:29;;;;;;;9.88;6.57;;;;;;;7.64;100.00;99274.56;826976;23;1146;-86
2021/12/29 00:28:01;;;;;;;10.48;6.55;;;;;;;7.64;100.00;99310.97;828434;23;1085;-87
2021/12/29 00:28:51;;;;;;;10.52;6.80;;;;;;;7.63;100.00;99310.13;834603;23;4486;-86
2021/12/29 00:29:15;;;;;;;9.98;6.82;;;;;;;7.70;100.00;99284.00;829415;23;1340;-86
2021/12/29 00:29:46;;;;;;;9.07;6.07;;;;;;;7.76;100.00;99331.59;830001;23;1282;-86
2021/12/29 00:30:31;;;;;;;9.48;6.82;;;;;;;7.68;100.00;99310.03;827046;23;707;-85
2021/12/29 00:31:12;;;;;;;10.05;6.50;;;;;;;7.71;100.00;99310.00;833620;23;986;-87
2021/12/29 00:32:11;;;;;;;8.50;6.40;;;;;;;7.83;100.00;99299.41;810876;23;4771;-86
2021/12/29 00:33:02;;;;;;;9.73;6.38;;;;;;;7.84;100.00;99295.94;825688;23;724;-86
2021/12/29 00:34:09;;;;;;;9.45;6.30;;;;;;;7.91;100.00;99285.44;822159;24;739;-86
2021/12/29 00:34:49;;;;;;;9.10;6.65;;;;;;;7.78;100.00;99293.44;818507;24;881;-86
2021/12/29 00:35:29;;;;;;;9.23;6.38;;;;;;;7.72;100.00;99285.72;818042;24;751;-87
2021/12/29 00:36:14;;;;;;;9.02;6.90;;;;;;;7.81;100.00;99295.13;815479;24;765;-86
2021/12/29 00:36:57;;;;;;;8.77;6.40;;;;;;;7.71;100.00;99299.59;815379;24;742;-86
2021/12/29 00:37:39;;;;;;;9.60;6.82;;;;;;;7.70;100.00;99289.22;814231;24;4254;-86
2021/12/29 00:38:32;;;;;;;11.35;6.57;;;;;;;7.62;100.00;99304.94;814544;24;1950;-86
2021/12/29 00:39:14;;;;;;;11.00;6.70;;;;;;;7.65;100.00;99302.28;818711;24;733;-85
2021/12/29 00:40:32;;;;;;;;;;;;;;;;;;;;;
2021/12/29 00:41:21;;;;;;;9.93;7.30;;;;;;;7.66;100.00;99335.22;808584;24;5133;-86
2021/12/29 00:41:56;;;;;;;9.40;6.68;;;;;;;7.74;100.00;99328.19;808028;24;924;-86
2021/12/29 00:42:49;;;;;;;9.82;6.65;;;;;;;7.83;100.00;99328.03;802408;24;756;-86
2021/12/29 00:43:32;;;;;;;9.63;6.80;;;;;;;7.76;100.00;99299.53;819142;24;744;-85
2021/12/29 00:44:19;;;;;;;10.05;6.80;;;;;;;7.78;100.00;99306.44;823069;24;1257;-85
2021/12/29 00:44:49;;;;;;;9.50;6.68;;;;;;;7.86;100.00;99332.31;826125;23;1179;-86
2021/12/29 00:45:12;;;;;;;8.73;6.72;;;;;;;7.79;100.00;99309.88;839590;23;1116;-87
2021/12/29 00:45:37;;;;;;;9.57;7.03;;;;;;;7.82;100.00;99362.75;833758;23;1291;-87
2021/12/29 00:45:58;;;;;;;10.27;7.18;;;;;;;7.75;100.00;99319.47;830076;23;1272;-86
2021/12/29 00:46:23;;;;;;;10.55;7.57;;;;;;;7.72;100.00;99319.53;817828;23;4340;-86
2021/12/29 00:46:53;;;;;;;9.98;6.97;;;;;;;7.78;100.00;99342.88;830074;23;1271;-87
2021/12/29 00:47:32;;;;;;;11.02;7.35;;;;;;;7.72;100.00;99324.72;829234;23;1459;-87
2021/12/29 00:48:04;;;;;;;9.60;6.60;;;;;;;7.76;100.00;99334.22;830367;23;1065;-86
2021/12/29 00:48:36;;;;;;;10.27;6.72;;;;;;;7.86;100.00;99328.88;827348;23;1343;-86
2021/12/29 00:49:00;;;;;;;10.00;6.60;;;;;;;7.96;100.00;99346.06;826305;23;1328;-87
2021/12/29 00:49:31;;;;;;;9.45;6.65;;;;;;;7.95;100.00;99339.16;812506;23;4475;-87
2021/12/29 00:49:53;;;;;;;9.38;6.90;;;;;;;7.87;100.00;99348.81;834011;23;1306;-87
2021/12/29 00:50:21;;;;;;;9.60;6.70;;;;;;;7.81;100.00;99324.59;826454;23;1397;-86
2021/12/29 00:50:45;;;;;;;9.98;7.15;;;;;;;7.77;100.00;99322.94;829988;23;1593;-86
2021/12/29 00:51:09;;;;;;;9.75;7.00;;;;;;;7.73;100.00;99375.03;825991;23;1260;-86
2021/12/29 00:51:38;;;;;;;10.25;6.93;;;;;;;7.66;100.00;99358.66;829022;23;1285;-86
2021/12/29 00:52:09;;;;;;;11.35;6.75;;;;;;;7.64;100.00;99353.47;825720;23;1293;-86
2021/12/29 00:52:36;;;;;;;10.14;6.74;;;;;;;7.65;100.00;99328.31;824128;23;4255;-86
2021/12/29 00:53:08;;;;;;;9.75;6.93;;;;;;;7.65;100.00;99360.38;825378;23;879;-86
2021/12/29 00:53:33;;;;;;;9.68;7.03;;;;;;;7.76;100.00;99342.00;822391;23;1409;-87
2021/12/29 00:54:01;;;;;;;9.65;7.00;;;;;;;7.77;100.00;99384.50;830705;23;1016;-85
2021/12/29 00:54:28;;;;;;;9.98;7.22;;;;;;;7.73;100.00;99349.88;835331;23;1444;-86
2021/12/29 00:54:52;;;;;;;9.80;7.10;;;;;;;7.66;100.00;99367.28;830406;23;1308;-86
2021/12/29 00:55:22;;;;;;;9.18;6.97;;;;;;;7.73;100.00;99347.25;828665;23;4313;-86
2021/12/29 00:55:46;;;;;;;9.55;6.80;;;;;;;7.82;100.00;99351.47;836023;23;882;-87
2021/12/29 00:56:21;;;;;;;10.25;7.30;;;;;;;7.85;100.00;99356.66;829735;23;896;-86
2021/12/29 00:56:53;;;;;;;10.75;7.28;;;;;;;7.81;100.00;99376.63;835093;23;1299;-86
2021/12/29 00:57:16;;;;;;;9.98;6.80;;;;;;;7.78;100.00;99363.69;833774;23;1304;-86
2021/12/29 00:57:39;;;;;;;9.90;7.00;;;;;;;7.81;100.00;99360.19;830104;23;1186;-86
2021/12/29 00:58:00;;;;;;;11.15;6.90;;;;;;;7.86;100.00;99349.69;825738;23;1273;-86
2021/12/29 00:58:26;;;;;;;11.27;7.07;;;;;;;7.84;100.00;99365.34;828014;23;4333;-86
2021/12/29 00:58:49;;;;;;;11.43;7.30;;;;;;;7.79;100.00;99357.56;829433;23;894;-87
2021/12/29 00:59:10;;;;;;;10.70;6.97;;;;;;;7.74;100.00;99364.59;826206;23;1257;-86
2021/12/29 00:59:34;;;;;;;11.18;7.10;;;;;;;7.71;100.00;99358.56;825286;23;1237;-87
2021/12/29 01:00:01;;;;;;;10.32;7.03;;;;;;;7.73;100.00;99357.66;830322;23;908;-86
2021/12/29 01:00:25;;;;;;;9.35;7.10;;;;;;;7.75;100.00;99387.09;826524;23;1312;-86
2021/12/29 01:00:51;;;;;;;9.50;7.03;;;;;;;7.74;100.00;99367.22;824861;23;1016;-86
2021/12/29 01:01:14;;;;;;;10.32;7.20;;;;;;;7.71;100.00;99387.19;821204;24;1528;-87
2021/12/29 01:01:40;;;;;;;10.40;7.63;;;;;;;7.64;100.00;99381.19;820157;24;4482;-86
2021/12/29 01:02:08;;;;;;;11.15;7.10;;;;;;;7.86;100.00;99388.72;826885;23;1349;-86
2021/12/29 01:02:52;;;;;;;11.60;6.95;;;;;;;7.81;100.00;99383.59;829549;23;922;-86
2021/12/29 01:03:35;;;;;;;;;;;;;;;;;;;;;
2021/12/29 01:03:59;;;;;;;10.75;7.28;;;;;;;7.78;100.00;99397.50;838719;23;1217;-85
2021/12/29 01:04:21;;;;;;;9.90;6.65;;;;;;;7.78;100.00;99397.50;831847;23;4261;-87
2021/12/29 01:04:54;;;;;;;9.82;6.75;;;;;;;7.73;100.00;99377.63;837721;23;1197;-87
2021/12/29 01:05:45;;;;;;;9.90;6.95;;;;;;;7.75;100.00;99371.50;834515;23;1557;-87
2021/12/29 01:06:13;;;;;;;8.95;6.72;;;;;;;7.82;100.00;99365.34;833601;23;886;-86
2021/12/29 01:06:45;;;;;;;8.98;6.47;;;;;;;7.87;100.00;99373.09;830493;23;1427;-86
2021/12/29 01:07:06;;;;;;;9.48;6.93;;;;;;;7.87;100.00;99408.66;832049;23;1305;-86
2021/12/29 01:07:31;;;;;;;10.32;6.85;;;;;;;7.81;100.00;99387.03;816757;23;4345;-87
2021/12/29 01:07:52;;;;;;;9.68;6.60;;;;;;;7.78;100.00;99370.59;830725;23;870;-87
2021/12/29 01:08:17;;;;;;;10.40;7.05;;;;;;;7.80;100.00;99392.28;826872;23;1322;-86
2021/12/29 01:08:40;;;;;;;10.10;7.00;;;;;;;7.75;100.00;99370.66;821975;24;1263;-87
2021/12/29 01:09:04;;;;;;;9.70;7.00;;;;;;;7.71;100.00;99400.19;830378;23;1311;-87
2021/12/29 01:09:27;;;;;;;9.27;6.85;;;;;;;7.75;100.00;99384.50;829453;23;1272;-86
2021/12/29 01:09:49;;;;;;;8.60;6.80;;;;;;;7.74;100.00;99401.03;830301;23;1328;-86
2021/12/29 01:10:14;;;;;;;10.77;7.53;;;;;;;7.77;100.00;99382.75;833394;23;1269;-87
2021/12/29 01:10:49;;;;;;;11.00;7.00;;;;;;;7.72;100.00;99414.94;830126;23;4849;-87
2021/12/29 01:11:18;;;;;;;11.30;7.43;;;;;;;7.75;100.00;99407.94;826769;23;1216;-86
2021/12/29 01:11:42;;;;;;;10.60;7.10;;;;;;;7.71;100.00;99408.84;825947;23;1282;-86
2021/12/29 01:12:11;;;;;;;9.95;6.90;;;;;;;7.69;100.00;99408.03;833981;23;1329;-87
2021/12/29 01:12:49;;;;;;;10.52;6.95;;;;;;;7.64;100.00;99408.09;838344;23;1578;-87
2021/12/29 01:13:18;;;;;;;10.38;7.13;;;;;;;7.71;100.00;99395.00;834868;23;1523;-86
2021/12/29 01:13:45;;;;;;;10.10;6.85;;;;;;;7.71;100.00;99403.63;811446;23;4920;-86
2021/12/29 01:14:17;;;;;;;10.38;7.47;;;;;;;7.74;100.00;99408.81;830489;23;1286;-87
2021/12/29 01:14:43;;;;;;;10.32;7.20;;;;;;;7.71;100.00;99418.41;830802;23;1312;-86
2021/12/29 01:15:16;;;;;;;11.07;7.20;;;;;;;7.74;100.00;99401.03;826335;23;907;-88
2021/12/29 01:16:45;;;;;;;10.27;7.63;;;;;;;7.78;100.00;99405.31;816766;23;4545;-87
2021/12/29 01:19:22;;;;;;;9.80;6.72;;;;;;;7.84;100.00;99400.00;840152;23;1377;-86
2021/12/29 01:19:47;;;;;;;9.93;7.60;;;;;;;7.80;100.00;99398.31;819660;23;4778;-86
2021/12/29 01:20:15;;;;;;;9.90;7.50;;;;;;;7.77;100.00;99429.59;827020;23;1364;-87
2021/12/29 01:20:41;;;;;;;10.27;7.78;;;;;;;7.77;100.00;99415.75;829573;23;775;-85
2021/12/29 01:21:10;;;;;;;10.38;7.72;;;;;;;7.75;100.00;99438.28;822077;23;1233;-87
2021/12/29 01:21:38;;;;;;;10.73;7.30;;;;;;;7.76;100.00;99412.25;822587;23;1274;-86
2021/12/29 01:22:11;;;;;;;10.15;7.20;;;;;;;7.70;100.00;99404.53;821575;23;1158;-86
2021/12/29 01:22:38;;;;;;;10.43;7.60;;;;;;;7.74;100.00;99405.34;814521;24;4384;-87
2021/12/29 01:24:30;;;;;;;10.35;7.70;;;;;;;7.90;100.00;99403.41;828676;23;1354;-87
2021/12/29 01:25:01;;;;;;;11.07;7.50;;;;;;;7.89;100.00;99412.09;829452;23;1227;-87
2021/12/29 01:25:31;;;;;;;11.27;7.82;;;;;;;7.79;100.00;99399.19;814476;23;4285;-86
2021/12/29 01:26:00;;;;;;;10.32;7.85;;;;;;;7.83;100.00;99423.44;826087;23;995;-86
2021/12/29 01:26:21;;;;;;;10.30;7.68;;;;;;;7.79;100.00;99413.97;822383;23;1453;-86
2021/12/29 01:26:46;;;;;;;9.77;7.20;;;;;;;7.86;100.00;99414.75;825861;23;1541;-87
2021/12/29 01:27:10;;;;;;;10.23;7.65;;;;;;;7.87;100.00;99412.13;829179;23;1349;-85
2021/12/29 01:27:36;;;;;;;11.13;7.60;;;;;;;7.87;100.00;99421.69;823282;24;1356;-86
2021/12/29 01:28:02;;;;;;;10.77;7.28;;;;;;;7.86;100.00;99431.19;814793;24;1261;-86
2021/12/29 01:28:23;;;;;;;11.48;7.68;;;;;;;7.82;100.00;99425.19;820240;23;4352;-86
2021/12/29 01:29:18;;;;;;;11.40;7.90;;;;;;;7.86;100.00;99443.38;822651;23;1124;-86
2021/12/29 01:29:51;;;;;;;10.68;7.63;;;;;;;7.76;100.00;99446.06;829659;23;1292;-86
2021/12/29 01:30:23;;;;;;;10.13;7.50;;;;;;;7.83;100.00;99450.31;825662;23;1007;-87
2021/12/29 01:31:21;;;;;;;;;;;;;;;;;;;;;
2021/12/29 01:31:56;;;;;;;11.57;7.85;;;;;;;7.88;100.00;99463.28;809255;23;4325;-86
2021/12/29 01:36:50;;;;;;;10.70;7.68;;;;;;;7.79;100.00;99460.78;838765;23;952;-86
2021/12/29 01:39:07;;;;;;;10.95;7.65;;;;;;;7.75;100.00;99461.72;837885;23;1459;-86
2021/12/29 01:39:37;;;;;;;12.20;7.93;;;;;;;7.72;100.00;99470.41;833338;23;1190;-86
2021/12/29 01:40:16;;;;;;;11.43;8.20;;;;;;;7.67;100.00;99441.00;830235;23;1200;-86
2021/12/29 01:41:03;;;;;;;11.30;8.30;;;;;;;7.65;100.00;99464.41;823878;23;4945;-86
2021/12/29 01:41:32;;;;;;;12.75;7.95;;;;;;;7.78;100.00;99459.94;824105;23;1441;-86
2021/12/29 01:41:57;;;;;;;11.07;8.00;;;;;;;7.79;100.00;99482.44;819311;24;1236;-86
2021/12/29 01:42:42;;;;;;;12.82;8.10;;;;;;;7.85;100.00;99450.31;826273;23;1462;-86
2021/12/29 01:43:08;;;;;;;11.45;8.13;;;;;;;7.81;100.00;99452.09;824607;23;1540;-86
2021/12/29 01:43:36;;;;;;;11.23;8.02;;;;;;;7.78;100.00;99452.13;815075;23;4224;-86
2021/12/29 01:44:04;;;;;;;12.27;8.27;;;;;;;7.74;100.00;99444.38;830311;23;1405;-86
2021/12/29 01:44:36;;;;;;;11.05;8.15;;;;;;;7.71;100.00;99455.66;826745;23;1005;-87
2021/12/29 01:45:01;;;;;;;12.07;8.20;;;;;;;7.73;100.00;99494.69;829818;23;1296;-86
2021/12/29 01:45:25;;;;;;;10.73;8.02;;;;;;;7.67;100.00;99451.41;828580;23;1057;-87
2021/12/29 01:45:53;;;;;;;11.48;8.32;;;;;;;7.62;100.00;99453.19;827364;23;825;-86
2021/12/29 01:46:20;;;;;;;13.05;8.60;;;;;;;7.67;100.00;99448.81;822462;23;1221;-86
2021/12/29 01:46:59;;;;;;;11.25;8.20;;;;;;;7.72;100.00;99454.78;818305;23;5181;-85
2021/12/29 02:38:31;;;;;;;9.55;7.40;;;;;;;7.73;100.00;99524.16;841534;23;3851;-86
2021/12/29 02:38:56;;;;;;;10.40;8.18;;;;;;;7.73;100.00;99529.38;823575;23;4724;-85
2021/12/29 02:39:27;;;;;;;10.02;7.60;;;;;;;7.75;100.00;99531.94;837599;23;906;-85
2021/12/29 02:39:51;;;;;;;9.98;7.80;;;;;;;7.84;100.00;99550.91;833884;23;1347;-86
2021/12/29 02:40:14;;;;;;;10.05;8.00;;;;;;;7.78;100.00;99551.00;828423;23;1256;-86
2021/12/29 02:40:40;;;;;;;9.93;8.13;;;;;;;7.75;100.00;99529.34;825781;23;1509;-85
2021/12/29 02:42:47;;;;;;;11.10;7.82;;;;;;;7.74;100.00;99566.63;834489;23;747;-87
2021/12/29 02:43:20;;;;;;;10.35;8.20;;;;;;;7.73;100.00;99597.00;826379;23;1419;-87
2021/12/29 02:44:49;;;;;;;10.55;7.95;;;;;;;7.77;100.00;99554.47;834166;23;1269;-86
2021/12/29 02:45:15;;;;;;;11.73;8.50;;;;;;;7.72;100.00;99558.00;829762;23;1317;-87
2021/12/29 02:45:38;;;;;;;10.38;8.30;;;;;;;7.70;100.00;99598.75;825418;23;1391;-86
2021/12/29 02:46:06;;;;;;;10.80;8.43;;;;;;;7.67;100.00;99565.88;818223;24;990;-86
2021/12/29 02:46:32;;;;;;;10.57;8.18;;;;;;;7.66;100.00;99558.94;821570;24;1567;-86
2021/12/29 02:46:57;;;;;;;10.82;8.68;;;;;;;7.66;100.00;99567.59;818666;23;1531;-86
2021/12/29 02:47:22;;;;;;;9.80;7.90;;;;;;;7.61;100.00;99574.56;819006;24;809;-87
2021/12/29 02:47:47;;;;;;;10.75;8.45;;;;;;;7.61;100.00;99569.38;817780;24;1276;-86
2021/12/29 02:48:21;;;;;;;10.80;8.32;;;;;;;7.59;100.00;99562.50;818623;24;1400;-88
2021/12/29 02:48:55;;;;;;;11.00;8.40;;;;;;;7.58;100.00;99563.34;820790;24;4975;-86
2021/12/29 02:49:19;;;;;;;12.10;8.93;;;;;;;7.58;100.00;99576.34;821941;24;1405;-86
2021/12/29 02:49:45;;;;;;;10.10;8.48;;;;;;;7.57;100.00;99588.47;822494;23;1446;-87
2021/12/29 02:50:08;;;;;;;11.98;8.55;;;;;;;7.55;100.00;99587.66;818988;24;1542;-85
2021/12/29 02:50:31;;;;;;;11.50;8.73;;;;;;;7.61;100.00;99566.75;821853;23;1286;-86
2021/12/29 02:50:56;;;;;;;11.48;9.05;;;;;;;7.56;100.00;99583.28;818443;24;746;-86
2021/12/29 02:51:24;;;;;;;11.98;9.07;;;;;;;7.60;100.00;99600.59;820882;23;1292;-87
2021/12/29 02:51:48;;;;;;;12.05;8.75;;;;;;;7.68;100.00;99609.19;829605;23;1236;-86
2021/12/29 02:52:16;;;;;;;12.43;8.60;;;;;;;7.64;100.00;99591.88;830689;23;1189;-86
2021/12/29 02:52:43;;;;;;;11.48;8.98;;;;;;;7.58;100.00;99568.56;825558;23;4250;-86
2021/12/29 02:53:04;;;;;;;12.95;9.48;;;;;;;7.58;100.00;99584.16;818703;24;1596;-86
2021/12/29 02:53:26;;;;;;;12.82;9.18;;;;;;;7.56;100.00;99562.50;821762;23;1205;-87
2021/12/29 02:53:49;;;;;;;11.73;8.75;;;;;;;7.55;100.00;99612.81;828999;23;1458;-86
2021/12/29 02:54:17;;;;;;;11.73;8.80;;;;;;;7.64;100.00;99565.88;825615;23;1273;-86
2021/12/29 02:54:50;;;;;;;11.52;8.60;;;;;;;7.61;100.00;99565.91;823194;23;1451;-86
2021/12/29 02:55:15;;;;;;;12.15;8.32;;;;;;;7.77;100.00;99571.84;821596;23;1358;-87
2021/12/29 02:55:45;;;;;;;11.68;8.93;;;;;;;7.66;100.00;99574.53;823543;23;4258;-86
2021/12/29 02:56:10;;;;;;;11.95;9.18;;;;;;;7.66;100.00;99598.81;830668;23;919;-86
2021/12/29 02:56:38;;;;;;;12.10;9.10;;;;;;;7.62;100.00;99593.66;825978;23;1223;-87
2021/12/29 02:57:01;;;;;;;13.40;9.48;;;;;;;7.63;100.00;99591.03;825903;23;1305;-85
2021/12/29 02:57:37;;;;;;;13.45;9.10;;;;;;;7.63;100.00;99596.25;826502;23;821;-86
2021/12/29 02:58:01;;;;;;;12.35;9.85;;;;;;;7.62;100.00;99572.84;824178;23;1239;-86
2021/12/29 02:58:24;;;;;;;13.35;9.23;;;;;;;7.61;100.00;99610.13;828719;23;4229;-86
2021/12/29 02:58:47;;;;;;;12.35;9.23;;;;;;;7.59;100.00;99581.53;821433;23;1247;-86
2021/12/29 02:59:08;;;;;;;12.52;9.38;;;;;;;7.59;100.00;99598.91;820651;23;1187;-86
2021/12/29 02:59:32;;;;;;;12.30;9.32;;;;;;;7.59;100.00;99611.91;820833;24;1344;-86
2021/12/29 02:59:53;;;;;;;11.50;9.13;;;;;;;7.65;100.00;99589.28;822311;23;1143;-86
2021/12/29 03:00:34;;;;;;;;;;;;;;;;;;;;;
2021/12/29 03:01:03;;;;;;;11.55;8.68;;;;;;;7.76;100.00;99607.38;822048;24;1238;-86
2021/12/29 03:01:32;;;;;;;11.85;8.88;;;;;;;7.73;100.00;99604.81;820499;23;4231;-86
2021/12/29 03:02:00;;;;;;;10.52;8.73;;;;;;;7.72;100.00;99584.88;829462;23;1235;-85
2021/12/29 03:02:23;;;;;;;12.27;8.85;;;;;;;7.70;100.00;99615.25;821580;24;1438;-86
2021/12/29 03:02:46;;;;;;;11.75;9.13;;;;;;;7.71;100.00;99583.13;822041;23;1449;-86
2021/12/29 03:03:36;;;;;;;10.68;8.65;;;;;;;7.70;100.00;99597.06;821534;24;1332;-86
2021/12/29 03:04:07;;;;;;;11.63;9.10;;;;;;;7.63;100.00;99585.84;821003;24;1239;-86
2021/12/29 03:04:27;;;;;;;11.82;9.13;;;;;;;7.71;100.00;99626.50;825057;23;4285;-85
2021/12/29 03:04:48;;;;;;;12.20;9.07;;;;;;;7.69;100.00;99591.88;821369;23;1052;-86
2021/12/29 03:05:09;;;;;;;11.48;8.90;;;;;;;7.64;100.00;99613.59;821636;24;1220;-85
2021/12/29 03:05:30;;;;;;;11.25;8.98;;;;;;;7.61;100.00;99592.78;824689;23;1112;-85
2021/12/29 03:05:54;;;;;;;11.95;9.05;;;;;;;7.72;100.00;99590.06;826026;23;1372;-84
2021/12/29 03:06:20;;;;;;;11.32;9.15;;;;;;;7.71;100.00;99613.50;822538;23;1326;-86
2021/12/29 03:06:55;;;;;;;11.50;9.40;;;;;;;7.72;100.00;99620.44;822845;23;1225;-86
2021/12/29 03:07:18;;;;;;;11.57;9.18;;;;;;;7.69;100.00;99610.94;822288;23;1201;-86
2021/12/29 03:07:55;;;;;;;11.63;9.38;;;;;;;7.65;100.00;99633.50;821850;23;4712;-86
2021/12/29 03:08:25;;;;;;;10.52;8.52;;;;;;;7.72;100.00;99613.47;823616;23;1061;-86
2021/12/29 03:08:45;;;;;;;11.30;8.90;;;;;;;7.71;100.00;99621.31;818625;24;1292;-85
2021/12/29 03:09:09;;;;;;;10.73;8.93;;;;;;;7.69;100.00;99587.50;821152;24;1253;-85
2021/12/29 03:09:30;;;;;;;11.05;8.82;;;;;;;7.65;100.00;99597.06;820992;23;1166;-85
2021/12/29 03:10:01;;;;;;;11.70;8.70;;;;;;;7.66;100.00;99585.78;816744;24;1264;-85
2021/12/29 03:10:22;;;;;;;11.50;9.05;;;;;;;7.69;100.00;99620.47;816025;24;4275;-86
2021/12/29 03:10:52;;;;;;;11.20;9.30;;;;;;;7.67;100.00;99600.53;825893;23;1217;-86
2021/12/29 03:11:16;;;;;;;11.40;9.00;;;;;;;7.63;100.00;99616.19;824589;23;1415;-85
2021/12/29 03:11:42;;;;;;;11.75;9.07;;;;;;;7.77;100.00;99605.66;817187;23;1463;-85
2021/12/29 03:12:03;;;;;;;11.23;8.70;;;;;;;7.81;100.00;99605.59;818606;23;1443;-86
2021/12/29 03:12:29;;;;;;;12.23;9.20;;;;;;;7.76;100.00;99628.19;829739;23;1353;-86
2021/12/29 03:13:03;;;;;;;11.55;9.05;;;;;;;7.74;100.00;99629.97;829071;23;868;-86
2021/12/29 03:13:28;;;;;;;11.43;9.02;;;;;;;7.67;100.00;99633.50;820397;23;4274;-86
2021/12/29 03:13:49;;;;;;;10.82;8.77;;;;;;;7.63;100.00;99631.81;821176;24;1206;-86
2021/12/29 03:14:14;;;;;;;11.00;8.70;;;;;;;7.65;100.00;99640.44;821644;24;1514;-85
2021/12/29 03:14:40;;;;;;;11.52;8.85;;;;;;;7.63;100.00;99605.78;823964;23;1381;-86
2021/12/29 03:15:32;;;;;;;;;;;;;;;;;;;;;
2021/12/29 03:15:55;;;;;;;11.38;8.52;;;;;;;7.60;100.00;99616.19;824881;23;1355;-86
2021/12/29 03:16:19;;;;;;;12.30;9.00;;;;;;;7.60;100.00;99619.69;817846;24;1095;-86
2021/12/29 03:16:44;;;;;;;12.07;8.73;;;;;;;7.60;100.00;99600.59;823020;23;4798;-85
2021/12/29 03:17:10;;;;;;;12.13;9.32;;;;;;;7.63;100.00;99634.41;832564;23;1394;-85
2021/12/29 03:17:37;;;;;;;11.20;8.80;;;;;;;7.60;100.00;99626.59;825434;23;1364;-86
2021/12/29 03:18:04;;;;;;;10.45;8.48;;;;;;;7.61;100.00;99624.00;821919;24;1272;-86
2021/12/29 03:18:25;;;;;;;10.50;8.50;;;;;;;7.63;100.00;99635.25;825284;23;1178;-85
2021/12/29 03:18:46;;;;;;;10.82;8.73;;;;;;;7.62;100.00;99622.28;826142;23;1375;-86
2021/12/29 03:19:12;;;;;;;11.57;8.80;;;;;;;7.70;100.00;99599.66;821292;23;1380;-86
2021/12/29 03:19:33;;;;;;;10.65;8.27;;;;;;;7.71;100.00;99601.34;818953;23;4265;-86
2021/12/29 03:19:59;;;;;;;10.90;8.40;;;;;;;7.79;100.00;99602.13;825417;23;1293;-86
2021/12/29 03:20:22;;;;;;;10.68;8.52;;;;;;;7.75;100.00;99613.44;826123;23;1378;-86
2021/12/29 03:20:52;;;;;;;12.02;8.18;;;;;;;7.86;100.00;99599.47;830378;23;850;-85
2021/12/29 03:21:15;;;;;;;10.75;7.97;;;;;;;7.81;100.00;99605.59;825328;23;1568;-85
2021/12/29 03:21:36;;;;;;;10.77;8.07;;;;;;;7.75;100.00;99613.44;827038;23;808;-85
2021/12/29 03:21:57;;;;;;;11.70;8.35;;;;;;;7.70;100.00;99641.28;818561;23;1236;-84
2021/12/29 03:22:24;;;;;;;11.67;8.70;;;;;;;7.70;100.00;99617.84;819654;24;983;-86
2021/12/29 03:22:47;;;;;;;10.65;8.23;;;;;;;7.78;100.00;99595.22;804300;24;4880;-85
2021/12/29 03:23:08;;;;;;;10.98;8.25;;;;;;;7.75;100.00;99597.00;817101;24;1247;-85
2021/12/29 03:23:39;;;;;;;;;;;;;;;;;;;;;
2021/12/29 03:24:05;;;;;;;9.90;7.97;;;;;;;7.74;100.00;99634.28;825620;23;1127;-85
2021/12/29 03:24:25;;;;;;;10.48;7.80;;;;;;;7.67;100.00;99602.28;820883;23;1314;-85
2021/12/29 03:24:46;;;;;;;10.40;7.83;;;;;;;7.65;100.00;99594.47;818678;24;964;-84
2021/12/29 03:25:17;;;;;;;11.05;8.02;;;;;;;7.65;100.00;99609.22;821327;24;1418;-85
2021/12/29 03:25:38;;;;;;;10.98;8.40;;;;;;;7.59;100.00;99609.31;824172;23;4165;-84